sensor_id;sensor_type;location;lat;lon;timestamp;noise_LAeq;noise_LA_min;noise_LA_max;noise_LA01;noise_LA95
66274;Laerm;58450;52.150;4.466;2023-06-22T00:00:24;38.55;30.77;47.90;;
66274;Laerm;58450;52.150;4.466;2023-06-22T00:02:52;38.94;30.72;47.35;;
66274;Laerm;58450;52.150;4.466;2023-06-22T00:05:21;41.22;31.05;56.15;;
66274;Laerm;58450;52.150;4.466;2023-06-22T00:07:48;38.86;30.26;52.30;;
66274;Laerm;58450;52.150;4.466;2023-06-22T00:10:16;43.48;31.18;67.09;;
66274;Laerm;58450;52.150;4.466;2023-06-22T00:12:43;38.94;30.78;48.30;;
66274;Laerm;58450;52.150;4.466;2023-06-22T00:15:11;39.63;30.77;58.72;;
66274;Laerm;58450;52.150;4.466;2023-06-22T00:17:38;39.13;31.20;51.61;;
66274;Laerm;58450;52.150;4.466;2023-06-22T00:20:07;39.74;32.23;49.07;;
66274;Laerm;58450;52.150;4.466;2023-06-22T00:22:37;38.91;31.44;47.50;;
66274;Laerm;58450;52.150;4.466;2023-06-22T00:25:07;39.00;31.32;47.59;;
66274;Laerm;58450;52.150;4.466;2023-06-22T00:27:35;38.67;31.46;47.68;;
66274;Laerm;58450;52.150;4.466;2023-06-22T00:30:04;42.98;31.52;62.24;;
66274;Laerm;58450;52.150;4.466;2023-06-22T00:32:31;42.96;33.19;60.23;;
66274;Laerm;58450;52.150;4.466;2023-06-22T00:34:59;39.64;32.41;47.96;;
66274;Laerm;58450;52.150;4.466;2023-06-22T00:37:27;38.54;31.19;48.84;;
66274;Laerm;58450;52.150;4.466;2023-06-22T00:39:57;39.21;31.27;50.67;;
66274;Laerm;58450;52.150;4.466;2023-06-22T00:42:25;38.93;31.45;47.47;;
66274;Laerm;58450;52.150;4.466;2023-06-22T00:44:52;41.52;31.76;59.77;;
66274;Laerm;58450;52.150;4.466;2023-06-22T00:47:20;42.12;32.43;49.38;;
66274;Laerm;58450;52.150;4.466;2023-06-22T00:49:49;39.90;32.33;48.05;;
66274;Laerm;58450;52.150;4.466;2023-06-22T00:52:20;39.16;31.29;48.11;;
66274;Laerm;58450;52.150;4.466;2023-06-22T00:54:53;39.07;31.73;59.63;;
66274;Laerm;58450;52.150;4.466;2023-06-22T00:57:24;38.64;31.66;47.24;;
66274;Laerm;58450;52.150;4.466;2023-06-22T00:59:54;39.41;31.59;47.98;;
66274;Laerm;58450;52.150;4.466;2023-06-22T01:02:22;39.71;32.29;48.42;;
66274;Laerm;58450;52.150;4.466;2023-06-22T01:04:49;41.64;33.53;59.69;;
66274;Laerm;58450;52.150;4.466;2023-06-22T01:07:24;40.07;31.70;58.52;;
66274;Laerm;58450;52.150;4.466;2023-06-22T01:10:03;39.30;31.90;47.83;;
66274;Laerm;58450;52.150;4.466;2023-06-22T01:12:49;39.53;32.08;51.78;;
66274;Laerm;58450;52.150;4.466;2023-06-22T01:15:25;39.21;32.27;48.35;;
66274;Laerm;58450;52.150;4.466;2023-06-22T01:17:57;39.54;31.14;47.75;;
66274;Laerm;58450;52.150;4.466;2023-06-22T01:20:29;40.57;32.01;65.30;;
66274;Laerm;58450;52.150;4.466;2023-06-22T01:23:20;39.22;32.28;47.54;;
66274;Laerm;58450;52.150;4.466;2023-06-22T01:26:05;43.67;31.37;61.11;;
66274;Laerm;58450;52.150;4.466;2023-06-22T01:28:47;38.91;31.88;48.04;;
66274;Laerm;58450;52.150;4.466;2023-06-22T01:31:19;40.52;31.37;54.01;;
66274;Laerm;58450;52.150;4.466;2023-06-22T01:33:53;38.63;31.13;47.69;;
66274;Laerm;58450;52.150;4.466;2023-06-22T01:36:23;38.98;31.97;52.14;;
66274;Laerm;58450;52.150;4.466;2023-06-22T01:38:53;39.58;31.63;55.91;;
66274;Laerm;58450;52.150;4.466;2023-06-22T01:41:24;38.87;31.99;47.01;;
66274;Laerm;58450;52.150;4.466;2023-06-22T01:43:55;39.42;32.10;47.97;;
66274;Laerm;58450;52.150;4.466;2023-06-22T01:46:23;39.19;31.76;48.57;;
66274;Laerm;58450;52.150;4.466;2023-06-22T01:48:53;39.10;31.39;51.85;;
66274;Laerm;58450;52.150;4.466;2023-06-22T01:51:21;39.30;31.89;47.57;;
66274;Laerm;58450;52.150;4.466;2023-06-22T01:53:48;39.45;32.39;50.07;;
66274;Laerm;58450;52.150;4.466;2023-06-22T01:56:17;43.03;32.02;56.76;;
66274;Laerm;58450;52.150;4.466;2023-06-22T01:58:52;39.15;31.90;47.61;;
66274;Laerm;58450;52.150;4.466;2023-06-22T02:01:31;39.52;32.14;47.55;;
66274;Laerm;58450;52.150;4.466;2023-06-22T02:04:06;43.34;34.54;63.77;;
66274;Laerm;58450;52.150;4.466;2023-06-22T02:06:39;39.93;32.42;47.64;;
66274;Laerm;58450;52.150;4.466;2023-06-22T02:09:14;39.24;32.42;53.68;;
66274;Laerm;58450;52.150;4.466;2023-06-22T02:11:44;48.72;32.69;70.20;;
66274;Laerm;58450;52.150;4.466;2023-06-22T02:14:13;39.94;32.45;55.37;;
66274;Laerm;58450;52.150;4.466;2023-06-22T02:16:44;39.53;32.10;47.84;;
66274;Laerm;58450;52.150;4.466;2023-06-22T02:19:12;43.91;32.90;62.61;;
66274;Laerm;58450;52.150;4.466;2023-06-22T02:21:44;40.21;32.55;49.50;;
66274;Laerm;58450;52.150;4.466;2023-06-22T02:24:12;41.74;32.56;65.97;;
66274;Laerm;58450;52.150;4.466;2023-06-22T02:26:40;49.53;33.45;67.48;;
66274;Laerm;58450;52.150;4.466;2023-06-22T02:29:08;40.91;32.78;61.67;;
66274;Laerm;58450;52.150;4.466;2023-06-22T02:31:36;45.02;33.83;62.98;;
66274;Laerm;58450;52.150;4.466;2023-06-22T02:34:05;40.97;34.89;48.42;;
66274;Laerm;58450;52.150;4.466;2023-06-22T02:36:32;44.00;33.75;65.60;;
66274;Laerm;58450;52.150;4.466;2023-06-22T02:39:00;43.10;32.99;59.44;;
66274;Laerm;58450;52.150;4.466;2023-06-22T02:41:30;40.62;32.94;52.00;;
66274;Laerm;58450;52.150;4.466;2023-06-22T02:43:57;40.71;34.11;49.40;;
66274;Laerm;58450;52.150;4.466;2023-06-22T02:46:25;41.22;33.24;54.90;;
66274;Laerm;58450;52.150;4.466;2023-06-22T02:48:52;41.30;34.14;56.61;;
66274;Laerm;58450;52.150;4.466;2023-06-22T02:51:21;45.04;34.88;73.28;;
66274;Laerm;58450;52.150;4.466;2023-06-22T02:53:49;45.06;35.73;66.04;;
66274;Laerm;58450;52.150;4.466;2023-06-22T02:56:18;41.07;34.92;57.71;;
66274;Laerm;58450;52.150;4.466;2023-06-22T02:58:51;41.09;34.80;57.35;;
66274;Laerm;58450;52.150;4.466;2023-06-22T03:01:18;41.83;34.04;56.02;;
66274;Laerm;58450;52.150;4.466;2023-06-22T03:03:49;42.14;33.83;55.78;;
66274;Laerm;58450;52.150;4.466;2023-06-22T03:06:17;44.22;35.39;65.03;;
66274;Laerm;58450;52.150;4.466;2023-06-22T03:08:51;42.96;35.73;61.21;;
66274;Laerm;58450;52.150;4.466;2023-06-22T03:11:18;41.68;35.43;54.89;;
66274;Laerm;58450;52.150;4.466;2023-06-22T03:13:46;41.84;35.62;56.92;;
66274;Laerm;58450;52.150;4.466;2023-06-22T03:16:14;42.13;35.38;62.03;;
66274;Laerm;58450;52.150;4.466;2023-06-22T03:18:41;42.92;35.15;65.22;;
66274;Laerm;58450;52.150;4.466;2023-06-22T03:21:09;43.52;36.67;60.46;;
66274;Laerm;58450;52.150;4.466;2023-06-22T03:23:36;42.39;36.20;55.84;;
66274;Laerm;58450;52.150;4.466;2023-06-22T03:26:05;44.59;36.90;59.30;;
66274;Laerm;58450;52.150;4.466;2023-06-22T03:28:33;45.65;37.13;66.42;;
66274;Laerm;58450;52.150;4.466;2023-06-22T03:31:00;44.86;36.54;57.53;;
66274;Laerm;58450;52.150;4.466;2023-06-22T03:33:28;46.52;36.74;68.40;;
66274;Laerm;58450;52.150;4.466;2023-06-22T03:35:56;45.14;35.93;56.80;;
66274;Laerm;58450;52.150;4.466;2023-06-22T03:38:23;44.06;35.82;57.26;;
66274;Laerm;58450;52.150;4.466;2023-06-22T03:40:51;42.73;35.75;62.33;;
66274;Laerm;58450;52.150;4.466;2023-06-22T03:43:20;45.33;36.55;62.07;;
66274;Laerm;58450;52.150;4.466;2023-06-22T03:45:47;45.27;36.75;59.26;;
66274;Laerm;58450;52.150;4.466;2023-06-22T03:48:15;43.96;37.21;59.36;;
66274;Laerm;58450;52.150;4.466;2023-06-22T03:50:42;45.45;36.46;60.95;;
66274;Laerm;58450;52.150;4.466;2023-06-22T03:53:11;45.21;37.56;60.90;;
66274;Laerm;58450;52.150;4.466;2023-06-22T03:55:47;45.11;38.28;57.31;;
66274;Laerm;58450;52.150;4.466;2023-06-22T03:58:16;46.26;37.87;62.29;;
66274;Laerm;58450;52.150;4.466;2023-06-22T04:00:46;45.13;37.68;59.87;;
66274;Laerm;58450;52.150;4.466;2023-06-22T04:03:15;43.02;36.80;57.48;;
66274;Laerm;58450;52.150;4.466;2023-06-22T04:05:45;45.64;37.30;61.04;;
66274;Laerm;58450;52.150;4.466;2023-06-22T04:08:13;45.59;38.48;61.37;;
66274;Laerm;58450;52.150;4.466;2023-06-22T04:10:42;43.55;38.30;57.37;;
66274;Laerm;58450;52.150;4.466;2023-06-22T04:13:09;47.38;37.38;63.29;;
66274;Laerm;58450;52.150;4.466;2023-06-22T04:15:37;43.27;38.26;59.66;;
66274;Laerm;58450;52.150;4.466;2023-06-22T04:18:06;47.10;38.14;64.56;;
66274;Laerm;58450;52.150;4.466;2023-06-22T04:20:34;44.65;37.70;62.95;;
66274;Laerm;58450;52.150;4.466;2023-06-22T04:23:01;45.96;38.49;58.16;;
66274;Laerm;58450;52.150;4.466;2023-06-22T04:25:29;44.89;37.28;59.62;;
66274;Laerm;58450;52.150;4.466;2023-06-22T04:27:56;44.91;38.22;58.70;;
66274;Laerm;58450;52.150;4.466;2023-06-22T04:30:24;44.25;39.65;52.98;;
66274;Laerm;58450;52.150;4.466;2023-06-22T04:32:52;46.19;38.97;59.37;;
66274;Laerm;58450;52.150;4.466;2023-06-22T04:35:25;44.79;39.54;62.17;;
66274;Laerm;58450;52.150;4.466;2023-06-22T04:37:58;47.77;39.23;57.75;;
66274;Laerm;58450;52.150;4.466;2023-06-22T04:40:25;46.74;40.28;56.29;;
66274;Laerm;58450;52.150;4.466;2023-06-22T04:42:53;47.05;40.80;59.94;;
66274;Laerm;58450;52.150;4.466;2023-06-22T04:45:21;47.09;41.46;56.32;;
66274;Laerm;58450;52.150;4.466;2023-06-22T04:47:49;52.03;42.21;59.85;;
66274;Laerm;58450;52.150;4.466;2023-06-22T04:50:17;52.13;48.92;63.77;;
66274;Laerm;58450;52.150;4.466;2023-06-22T04:52:51;51.57;47.87;61.61;;
66274;Laerm;58450;52.150;4.466;2023-06-22T04:55:20;51.41;47.41;60.49;;
66274;Laerm;58450;52.150;4.466;2023-06-22T04:57:48;50.79;46.81;61.69;;
66274;Laerm;58450;52.150;4.466;2023-06-22T05:00:17;51.14;45.93;61.35;;
66274;Laerm;58450;52.150;4.466;2023-06-22T05:02:46;49.50;42.52;62.15;;
66274;Laerm;58450;52.150;4.466;2023-06-22T05:05:15;47.40;41.13;63.16;;
66274;Laerm;58450;52.150;4.466;2023-06-22T05:07:44;50.70;40.18;72.98;;
66274;Laerm;58450;52.150;4.466;2023-06-22T05:10:15;49.91;41.36;73.66;;
66274;Laerm;58450;52.150;4.466;2023-06-22T05:12:43;50.39;41.81;70.77;;
66274;Laerm;58450;52.150;4.466;2023-06-22T05:15:11;50.08;41.88;65.54;;
66274;Laerm;58450;52.150;4.466;2023-06-22T05:17:38;48.22;41.52;65.61;;
66274;Laerm;58450;52.150;4.466;2023-06-22T05:20:10;47.70;40.73;67.19;;
66274;Laerm;58450;52.150;4.466;2023-06-22T05:22:38;48.53;41.37;68.17;;
66274;Laerm;58450;52.150;4.466;2023-06-22T05:25:09;47.92;41.05;62.42;;
66274;Laerm;58450;52.150;4.466;2023-06-22T05:27:38;48.68;41.29;73.90;;
66274;Laerm;58450;52.150;4.466;2023-06-22T05:30:08;49.88;39.57;64.73;;
66274;Laerm;58450;52.150;4.466;2023-06-22T05:32:37;49.00;41.32;64.54;;
66274;Laerm;58450;52.150;4.466;2023-06-22T05:35:06;47.82;41.02;58.61;;
66274;Laerm;58450;52.150;4.466;2023-06-22T05:37:33;48.72;41.46;64.35;;
66274;Laerm;58450;52.150;4.466;2023-06-22T05:40:01;49.74;41.94;60.18;;
66274;Laerm;58450;52.150;4.466;2023-06-22T05:42:28;52.96;40.11;69.49;;
66274;Laerm;58450;52.150;4.466;2023-06-22T05:44:57;51.78;40.13;65.90;;
66274;Laerm;58450;52.150;4.466;2023-06-22T05:47:25;51.51;40.61;70.46;;
66274;Laerm;58450;52.150;4.466;2023-06-22T05:49:53;48.74;40.46;61.35;;
66274;Laerm;58450;52.150;4.466;2023-06-22T05:52:20;49.78;40.60;69.06;;
66274;Laerm;58450;52.150;4.466;2023-06-22T05:54:48;52.27;40.29;74.39;;
66274;Laerm;58450;52.150;4.466;2023-06-22T05:57:15;49.53;40.72;73.81;;
66274;Laerm;58450;52.150;4.466;2023-06-22T05:59:43;52.05;41.34;81.28;;
66274;Laerm;58450;52.150;4.466;2023-06-22T06:02:12;48.72;41.93;62.77;;
66274;Laerm;58450;52.150;4.466;2023-06-22T06:04:39;48.93;41.58;61.78;;
66274;Laerm;58450;52.150;4.466;2023-06-22T06:07:07;48.73;40.65;71.71;;
66274;Laerm;58450;52.150;4.466;2023-06-22T06:09:34;50.98;42.36;67.83;;
66274;Laerm;58450;52.150;4.466;2023-06-22T06:12:03;51.51;42.47;72.18;;
66274;Laerm;58450;52.150;4.466;2023-06-22T06:14:30;52.03;42.83;66.25;;
66274;Laerm;58450;52.150;4.466;2023-06-22T06:16:58;50.80;41.93;64.52;;
66274;Laerm;58450;52.150;4.466;2023-06-22T06:19:27;52.40;44.51;63.18;;
66274;Laerm;58450;52.150;4.466;2023-06-22T06:21:54;48.98;43.34;66.91;;
66274;Laerm;58450;52.150;4.466;2023-06-22T06:24:22;49.09;43.60;59.17;;
66274;Laerm;58450;52.150;4.466;2023-06-22T06:26:50;50.56;43.03;64.64;;
66274;Laerm;58450;52.150;4.466;2023-06-22T06:29:17;48.78;43.88;60.22;;
66274;Laerm;58450;52.150;4.466;2023-06-22T06:31:45;47.97;42.93;63.01;;
66274;Laerm;58450;52.150;4.466;2023-06-22T06:34:13;48.31;42.30;61.35;;
66274;Laerm;58450;52.150;4.466;2023-06-22T06:36:42;47.23;41.26;57.54;;
66274;Laerm;58450;52.150;4.466;2023-06-22T06:39:10;65.75;41.81;81.52;;
66274;Laerm;58450;52.150;4.466;2023-06-22T06:41:38;70.20;43.93;80.08;;
66274;Laerm;58450;52.150;4.466;2023-06-22T06:44:05;53.45;43.59;67.94;;
66274;Laerm;58450;52.150;4.466;2023-06-22T06:46:33;49.70;41.88;69.91;;
66274;Laerm;58450;52.150;4.466;2023-06-22T06:49:01;50.39;41.45;64.91;;
66274;Laerm;58450;52.150;4.466;2023-06-22T06:51:28;48.85;41.03;69.33;;
66274;Laerm;58450;52.150;4.466;2023-06-22T06:53:57;49.76;42.77;63.82;;
66274;Laerm;58450;52.150;4.466;2023-06-22T06:56:25;49.10;41.91;63.33;;
66274;Laerm;58450;52.150;4.466;2023-06-22T06:58:52;50.62;42.64;66.38;;
66274;Laerm;58450;52.150;4.466;2023-06-22T07:01:20;50.96;42.06;70.81;;
66274;Laerm;58450;52.150;4.466;2023-06-22T07:03:48;50.49;42.45;66.15;;
66274;Laerm;58450;52.150;4.466;2023-06-22T07:06:15;50.07;42.12;63.81;;
66274;Laerm;58450;52.150;4.466;2023-06-22T07:08:43;50.79;44.96;62.85;;
66274;Laerm;58450;52.150;4.466;2023-06-22T07:11:12;50.42;41.62;63.18;;
66274;Laerm;58450;52.150;4.466;2023-06-22T07:13:39;52.67;40.05;65.79;;
66274;Laerm;58450;52.150;4.466;2023-06-22T07:16:07;48.41;41.47;66.79;;
66274;Laerm;58450;52.150;4.466;2023-06-22T07:18:34;48.28;41.93;59.63;;
66274;Laerm;58450;52.150;4.466;2023-06-22T07:21:02;46.68;40.56;65.53;;
66274;Laerm;58450;52.150;4.466;2023-06-22T07:23:32;49.32;41.21;60.82;;
66274;Laerm;58450;52.150;4.466;2023-06-22T07:26:00;48.87;41.97;62.03;;
66274;Laerm;58450;52.150;4.466;2023-06-22T07:28:29;50.08;40.26;75.38;;
66274;Laerm;58450;52.150;4.466;2023-06-22T07:31:03;48.13;39.97;68.65;;
66274;Laerm;58450;52.150;4.466;2023-06-22T07:33:31;51.19;41.84;66.44;;
66274;Laerm;58450;52.150;4.466;2023-06-22T07:35:58;50.87;43.32;57.98;;
66274;Laerm;58450;52.150;4.466;2023-06-22T07:38:26;49.54;41.07;62.68;;
66274;Laerm;58450;52.150;4.466;2023-06-22T07:40:54;47.25;40.76;63.77;;
66274;Laerm;58450;52.150;4.466;2023-06-22T07:43:21;50.31;42.97;60.73;;
66274;Laerm;58450;52.150;4.466;2023-06-22T07:45:50;49.41;42.50;65.46;;
66274;Laerm;58450;52.150;4.466;2023-06-22T07:48:20;51.32;41.49;69.39;;
66274;Laerm;58450;52.150;4.466;2023-06-22T07:50:49;50.48;43.42;56.78;;
66274;Laerm;58450;52.150;4.466;2023-06-22T07:53:16;51.31;45.82;63.84;;
66274;Laerm;58450;52.150;4.466;2023-06-22T07:55:44;51.79;46.61;67.36;;
66274;Laerm;58450;52.150;4.466;2023-06-22T07:58:11;51.35;46.54;60.33;;
66274;Laerm;58450;52.150;4.466;2023-06-22T08:00:39;52.83;46.61;60.77;;
66274;Laerm;58450;52.150;4.466;2023-06-22T08:03:08;52.46;44.02;75.03;;
66274;Laerm;58450;52.150;4.466;2023-06-22T08:05:36;48.63;40.34;62.66;;
66274;Laerm;58450;52.150;4.466;2023-06-22T08:08:04;51.77;41.45;74.36;;
66274;Laerm;58450;52.150;4.466;2023-06-22T08:10:31;49.23;41.20;63.04;;
66274;Laerm;58450;52.150;4.466;2023-06-22T08:12:59;53.47;43.48;72.30;;
66274;Laerm;58450;52.150;4.466;2023-06-22T08:15:26;53.94;44.64;70.66;;
66274;Laerm;58450;52.150;4.466;2023-06-22T08:17:54;50.48;44.17;65.97;;
66274;Laerm;58450;52.150;4.466;2023-06-22T08:20:23;52.21;42.92;78.58;;
66274;Laerm;58450;52.150;4.466;2023-06-22T08:22:51;50.93;43.14;62.58;;
66274;Laerm;58450;52.150;4.466;2023-06-22T08:25:18;49.73;42.64;63.60;;
66274;Laerm;58450;52.150;4.466;2023-06-22T08:27:47;50.51;42.31;61.14;;
66274;Laerm;58450;52.150;4.466;2023-06-22T08:30:16;49.31;42.47;64.48;;
66274;Laerm;58450;52.150;4.466;2023-06-22T08:32:44;51.69;43.98;64.98;;
66274;Laerm;58450;52.150;4.466;2023-06-22T08:35:12;52.20;41.12;69.88;;
66274;Laerm;58450;52.150;4.466;2023-06-22T08:37:41;52.64;40.81;67.59;;
66274;Laerm;58450;52.150;4.466;2023-06-22T08:40:10;55.12;44.73;71.02;;
66274;Laerm;58450;52.150;4.466;2023-06-22T08:42:40;52.81;42.59;71.15;;
66274;Laerm;58450;52.150;4.466;2023-06-22T08:45:09;52.77;44.61;70.63;;
66274;Laerm;58450;52.150;4.466;2023-06-22T08:47:37;51.44;41.73;67.95;;
66274;Laerm;58450;52.150;4.466;2023-06-22T08:50:06;47.91;41.90;62.72;;
66274;Laerm;58450;52.150;4.466;2023-06-22T08:52:35;47.21;39.11;66.48;;
66274;Laerm;58450;52.150;4.466;2023-06-22T08:55:06;50.25;40.72;71.20;;
66274;Laerm;58450;52.150;4.466;2023-06-22T08:57:33;53.12;44.38;63.07;;
66274;Laerm;58450;52.150;4.466;2023-06-22T09:00:05;49.62;42.08;68.76;;
66274;Laerm;58450;52.150;4.466;2023-06-22T09:02:42;50.53;41.94;63.03;;
66274;Laerm;58450;52.150;4.466;2023-06-22T09:05:09;48.73;40.53;73.36;;
66274;Laerm;58450;52.150;4.466;2023-06-22T09:07:37;50.91;41.11;63.55;;
66274;Laerm;58450;52.150;4.466;2023-06-22T09:10:07;56.00;48.63;69.67;;
66274;Laerm;58450;52.150;4.466;2023-06-22T09:12:35;61.57;53.39;72.21;;
66274;Laerm;58450;52.150;4.466;2023-06-22T09:15:05;58.24;52.84;67.29;;
66274;Laerm;58450;52.150;4.466;2023-06-22T09:17:33;56.51;50.62;66.82;;
66274;Laerm;58450;52.150;4.466;2023-06-22T09:20:02;62.83;49.75;72.71;;
66274;Laerm;58450;52.150;4.466;2023-06-22T09:22:32;57.02;48.52;66.14;;
66274;Laerm;58450;52.150;4.466;2023-06-22T09:24:59;52.24;45.24;61.56;;
66274;Laerm;58450;52.150;4.466;2023-06-22T09:27:28;55.37;42.90;69.53;;
66274;Laerm;58450;52.150;4.466;2023-06-22T09:29:56;49.92;42.44;63.58;;
66274;Laerm;58450;52.150;4.466;2023-06-22T09:32:24;49.36;40.72;61.01;;
66274;Laerm;58450;52.150;4.466;2023-06-22T09:34:52;50.40;42.62;67.05;;
66274;Laerm;58450;52.150;4.466;2023-06-22T09:37:20;51.94;44.79;67.56;;
66274;Laerm;58450;52.150;4.466;2023-06-22T09:39:47;50.84;43.69;61.75;;
66274;Laerm;58450;52.150;4.466;2023-06-22T09:42:15;50.71;42.48;63.54;;
66274;Laerm;58450;52.150;4.466;2023-06-22T09:44:44;51.68;41.80;72.99;;
66274;Laerm;58450;52.150;4.466;2023-06-22T09:47:11;52.76;42.19;65.27;;
66274;Laerm;58450;52.150;4.466;2023-06-22T09:49:39;50.65;41.96;72.04;;
66274;Laerm;58450;52.150;4.466;2023-06-22T09:52:07;49.75;40.24;66.90;;
66274;Laerm;58450;52.150;4.466;2023-06-22T09:54:35;50.24;41.71;67.80;;
66274;Laerm;58450;52.150;4.466;2023-06-22T09:57:03;48.37;41.50;61.26;;
66274;Laerm;58450;52.150;4.466;2023-06-22T09:59:30;47.44;41.86;60.12;;
66274;Laerm;58450;52.150;4.466;2023-06-22T10:01:59;46.68;39.19;61.26;;
66274;Laerm;58450;52.150;4.466;2023-06-22T10:04:27;49.07;40.45;61.32;;
66274;Laerm;58450;52.150;4.466;2023-06-22T10:06:54;47.87;42.14;59.62;;
66274;Laerm;58450;52.150;4.466;2023-06-22T10:09:22;48.33;41.83;58.57;;
66274;Laerm;58450;52.150;4.466;2023-06-22T10:11:50;48.96;40.99;61.40;;
66274;Laerm;58450;52.150;4.466;2023-06-22T10:14:17;52.70;45.96;65.51;;
66274;Laerm;58450;52.150;4.466;2023-06-22T10:16:45;49.67;44.46;60.11;;
66274;Laerm;58450;52.150;4.466;2023-06-22T10:19:14;48.96;42.64;59.12;;
66274;Laerm;58450;52.150;4.466;2023-06-22T10:21:41;52.06;42.24;70.15;;
66274;Laerm;58450;52.150;4.466;2023-06-22T10:24:09;53.52;42.39;70.53;;
66274;Laerm;58450;52.150;4.466;2023-06-22T10:26:36;48.78;43.17;60.90;;
66274;Laerm;58450;52.150;4.466;2023-06-22T10:29:04;50.81;42.78;62.56;;
66274;Laerm;58450;52.150;4.466;2023-06-22T10:31:32;48.94;41.05;65.10;;
66274;Laerm;58450;52.150;4.466;2023-06-22T10:34:00;52.37;42.50;72.21;;
66274;Laerm;58450;52.150;4.466;2023-06-22T10:36:29;53.21;42.40;82.31;;
66274;Laerm;58450;52.150;4.466;2023-06-22T10:38:56;50.70;42.88;63.89;;
66274;Laerm;58450;52.150;4.466;2023-06-22T10:41:25;48.78;42.54;67.41;;
66274;Laerm;58450;52.150;4.466;2023-06-22T10:43:56;53.18;43.73;66.03;;
66274;Laerm;58450;52.150;4.466;2023-06-22T10:46:24;51.23;45.33;59.87;;
66274;Laerm;58450;52.150;4.466;2023-06-22T10:48:53;48.62;40.98;65.76;;
66274;Laerm;58450;52.150;4.466;2023-06-22T10:51:23;66.06;40.76;89.94;;
66274;Laerm;58450;52.150;4.466;2023-06-22T10:53:52;62.43;41.09;80.82;;
66274;Laerm;58450;52.150;4.466;2023-06-22T10:56:19;62.14;40.28;81.68;;
66274;Laerm;58450;52.150;4.466;2023-06-22T10:58:47;64.86;41.18;83.65;;
66274;Laerm;58450;52.150;4.466;2023-06-22T11:01:15;52.77;40.59;76.61;;
66274;Laerm;58450;52.150;4.466;2023-06-22T11:03:42;58.61;40.03;82.54;;
66274;Laerm;58450;52.150;4.466;2023-06-22T11:06:10;58.06;41.58;79.29;;
66274;Laerm;58450;52.150;4.466;2023-06-22T11:08:37;54.08;43.23;65.54;;
66274;Laerm;58450;52.150;4.466;2023-06-22T11:11:06;52.45;46.05;63.25;;
66274;Laerm;58450;52.150;4.466;2023-06-22T11:13:34;51.16;42.64;62.65;;
66274;Laerm;58450;52.150;4.466;2023-06-22T11:16:02;50.69;40.60;64.09;;
66274;Laerm;58450;52.150;4.466;2023-06-22T11:18:31;53.58;45.82;63.05;;
66274;Laerm;58450;52.150;4.466;2023-06-22T11:20:59;53.57;46.45;63.03;;
66274;Laerm;58450;52.150;4.466;2023-06-22T11:23:27;50.51;41.38;65.29;;
66274;Laerm;58450;52.150;4.466;2023-06-22T11:25:54;49.75;40.09;59.53;;
66274;Laerm;58450;52.150;4.466;2023-06-22T11:28:23;49.94;44.50;61.81;;
66274;Laerm;58450;52.150;4.466;2023-06-22T11:30:51;49.76;44.86;58.22;;
66274;Laerm;58450;52.150;4.466;2023-06-22T11:33:19;48.35;41.70;62.09;;
66274;Laerm;58450;52.150;4.466;2023-06-22T11:35:47;50.00;40.95;70.51;;
66274;Laerm;58450;52.150;4.466;2023-06-22T11:38:14;51.16;42.34;68.12;;
66274;Laerm;58450;52.150;4.466;2023-06-22T11:40:43;51.61;40.33;66.09;;
66274;Laerm;58450;52.150;4.466;2023-06-22T11:43:10;53.39;43.77;60.80;;
66274;Laerm;58450;52.150;4.466;2023-06-22T11:45:39;48.02;41.47;58.13;;
66274;Laerm;58450;52.150;4.466;2023-06-22T11:48:07;49.26;42.40;65.20;;
66274;Laerm;58450;52.150;4.466;2023-06-22T11:50:34;51.33;42.12;67.27;;
66274;Laerm;58450;52.150;4.466;2023-06-22T11:53:03;51.70;43.59;75.65;;
66274;Laerm;58450;52.150;4.466;2023-06-22T11:55:30;50.62;41.41;63.07;;
66274;Laerm;58450;52.150;4.466;2023-06-22T11:57:58;51.36;41.92;68.47;;
66274;Laerm;58450;52.150;4.466;2023-06-22T12:00:29;49.46;40.78;66.20;;
66274;Laerm;58450;52.150;4.466;2023-06-22T12:02:58;51.52;39.47;75.31;;
66274;Laerm;58450;52.150;4.466;2023-06-22T12:05:26;48.33;40.46;66.52;;
66274;Laerm;58450;52.150;4.466;2023-06-22T12:07:54;48.22;39.90;59.98;;
66274;Laerm;58450;52.150;4.466;2023-06-22T12:10:22;50.89;43.60;63.50;;
66274;Laerm;58450;52.150;4.466;2023-06-22T12:12:51;53.99;43.53;70.18;;
66274;Laerm;58450;52.150;4.466;2023-06-22T12:15:18;49.20;42.12;61.38;;
66274;Laerm;58450;52.150;4.466;2023-06-22T12:17:46;50.47;40.66;65.42;;
66274;Laerm;58450;52.150;4.466;2023-06-22T12:20:15;52.22;39.63;74.85;;
66274;Laerm;58450;52.150;4.466;2023-06-22T12:22:43;54.74;41.80;66.45;;
66274;Laerm;58450;52.150;4.466;2023-06-22T12:25:11;52.29;43.94;62.07;;
66274;Laerm;58450;52.150;4.466;2023-06-22T12:27:39;52.75;43.11;64.17;;
66274;Laerm;58450;52.150;4.466;2023-06-22T12:30:09;47.95;40.30;64.02;;
66274;Laerm;58450;52.150;4.466;2023-06-22T12:32:36;45.37;40.26;57.61;;
66274;Laerm;58450;52.150;4.466;2023-06-22T12:35:05;45.88;39.13;59.61;;
66274;Laerm;58450;52.150;4.466;2023-06-22T12:37:40;52.54;40.65;65.45;;
66274;Laerm;58450;52.150;4.466;2023-06-22T12:40:09;47.26;39.71;59.56;;
66274;Laerm;58450;52.150;4.466;2023-06-22T12:42:37;47.24;40.54;58.32;;
66274;Laerm;58450;52.150;4.466;2023-06-22T12:45:06;47.84;40.62;61.65;;
66274;Laerm;58450;52.150;4.466;2023-06-22T12:47:33;48.18;40.55;59.68;;
66274;Laerm;58450;52.150;4.466;2023-06-22T12:50:01;51.21;41.87;65.00;;
66274;Laerm;58450;52.150;4.466;2023-06-22T12:52:30;56.19;40.10;71.81;;
66274;Laerm;58450;52.150;4.466;2023-06-22T12:55:00;58.03;43.09;74.04;;
66274;Laerm;58450;52.150;4.466;2023-06-22T12:57:27;57.63;45.68;73.52;;
66274;Laerm;58450;52.150;4.466;2023-06-22T12:59:55;53.84;41.30;72.70;;
66274;Laerm;58450;52.150;4.466;2023-06-22T13:02:24;50.31;42.50;62.65;;
66274;Laerm;58450;52.150;4.466;2023-06-22T13:04:52;49.34;44.19;64.43;;
66274;Laerm;58450;52.150;4.466;2023-06-22T13:07:19;51.32;42.88;74.27;;
66274;Laerm;58450;52.150;4.466;2023-06-22T13:09:47;49.08;42.81;55.84;;
66274;Laerm;58450;52.150;4.466;2023-06-22T13:12:20;51.00;42.57;69.36;;
66274;Laerm;58450;52.150;4.466;2023-06-22T13:14:48;49.67;41.03;66.92;;
66274;Laerm;58450;52.150;4.466;2023-06-22T13:17:15;49.18;42.26;62.14;;
66274;Laerm;58450;52.150;4.466;2023-06-22T13:19:43;51.69;41.83;67.75;;
66274;Laerm;58450;52.150;4.466;2023-06-22T13:22:28;55.61;43.88;68.24;;
66274;Laerm;58450;52.150;4.466;2023-06-22T13:24:56;50.00;41.80;63.77;;
66274;Laerm;58450;52.150;4.466;2023-06-22T13:27:26;47.36;42.46;61.73;;
66274;Laerm;58450;52.150;4.466;2023-06-22T13:29:53;53.25;43.98;62.32;;
66274;Laerm;58450;52.150;4.466;2023-06-22T13:32:21;50.95;45.18;60.94;;
66274;Laerm;58450;52.150;4.466;2023-06-22T13:34:49;51.05;44.65;70.94;;
66274;Laerm;58450;52.150;4.466;2023-06-22T13:37:16;48.58;40.67;64.60;;
66274;Laerm;58450;52.150;4.466;2023-06-22T13:39:44;48.14;39.91;61.77;;
66274;Laerm;58450;52.150;4.466;2023-06-22T13:42:12;46.55;39.85;60.52;;
66274;Laerm;58450;52.150;4.466;2023-06-22T13:44:41;49.12;40.97;62.01;;
66274;Laerm;58450;52.150;4.466;2023-06-22T13:47:08;47.48;39.69;61.32;;
66274;Laerm;58450;52.150;4.466;2023-06-22T13:49:36;48.29;40.92;60.21;;
66274;Laerm;58450;52.150;4.466;2023-06-22T13:52:05;48.64;40.36;61.72;;